createdAt,value
2018-12-09T00:00:09.440Z,86.20
2018-12-09T00:02:37.492Z,82.80
2018-12-09T00:05:05.705Z,81.90
2018-12-09T00:12:29.345Z,90.10
2018-12-09T00:19:52.988Z,90.80
2018-12-09T00:22:21.520Z,91.20
2018-12-09T00:27:17.400Z,82.00
2018-12-09T00:29:46.768Z,82.40
2018-12-09T00:32:15.664Z,83.30
2018-12-09T00:34:43.443Z,81.20
2018-12-09T00:37:11.445Z,82.00
2018-12-09T00:42:07.079Z,77.30
2018-12-09T00:44:35.622Z,76.90
2018-12-09T00:49:33.220Z,76.70
2018-12-09T00:52:01.749Z,76.90
2018-12-09T00:54:30.328Z,74.30
2018-12-09T00:57:00.020Z,74.60
2018-12-09T00:59:28.116Z,76.50
2018-12-09T01:21:38.904Z,75.70
2018-12-09T01:33:58.383Z,76.90
2018-12-09T01:36:26.232Z,77.70
2018-12-09T01:56:15.432Z,72.80
2018-12-09T01:58:43.608Z,71.20
2018-12-09T02:01:11.720Z,69.40
2018-12-09T02:03:39.822Z,70.20
2018-12-09T02:06:07.655Z,69.10
2018-12-09T02:11:05.631Z,73.30
2018-12-09T02:16:01.771Z,71.80
2018-12-09T02:20:58.736Z,70.50
2018-12-09T02:23:26.570Z,72.30
2018-12-09T02:28:22.120Z,69.70
2018-12-09T02:30:49.899Z,70.30
2018-12-09T02:33:17.867Z,70.80
2018-12-09T02:35:47.047Z,70.70
2018-12-09T02:40:42.524Z,71.70
2018-12-09T02:43:12.235Z,72.30
2018-12-09T02:45:40.016Z,75.10
2018-12-09T02:48:07.808Z,78.90
2018-12-09T02:50:35.556Z,77.30
2018-12-09T02:53:03.377Z,77.80
2018-12-09T02:55:31.544Z,76.80
2018-12-09T02:57:59.366Z,77.10
2018-12-09T03:00:27.101Z,80.50
2018-12-09T03:02:54.930Z,81.80
2018-12-09T03:07:50.793Z,78.50
2018-12-09T03:10:18.557Z,76.90
2018-12-09T03:12:46.328Z,75.70
2018-12-09T03:15:14.097Z,76.30
2018-12-09T03:17:41.823Z,81.40
2018-12-09T03:20:09.680Z,81.90
2018-12-09T03:22:37.516Z,79.80
2018-12-09T03:27:33.121Z,78.20
2018-12-09T03:32:28.831Z,80.70
2018-12-09T03:34:57.002Z,81.20
2018-12-09T03:39:52.942Z,86.10
2018-12-09T03:42:21.191Z,85.50
2018-12-09T03:44:48.984Z,83.30
2018-12-09T03:47:16.743Z,79.40
2018-12-09T03:54:41.045Z,78.30
2018-12-09T03:57:08.856Z,78.50
2018-12-09T04:02:04.509Z,77.20
2018-12-09T04:04:32.369Z,79.10
2018-12-09T04:07:00.312Z,81.50
2018-12-09T04:11:56.189Z,79.00
2018-12-09T04:14:25.071Z,76.90
2018-12-09T04:16:52.909Z,77.30
2018-12-09T04:19:20.658Z,76.10
2018-12-09T04:21:48.450Z,77.30
2018-12-09T04:24:16.206Z,78.70
2018-12-09T04:26:44.016Z,79.80
2018-12-09T04:29:11.835Z,79.50
2018-12-09T04:31:39.651Z,79.40
2018-12-09T04:34:08.218Z,77.90
2018-12-09T04:36:36.032Z,76.00
2018-12-09T04:39:04.688Z,75.80
2018-12-09T04:41:32.487Z,74.70
2018-12-09T04:44:01.275Z,76.20
2018-12-09T04:48:56.822Z,74.10
2018-12-09T04:53:55.218Z,75.80
2018-12-09T05:01:20.968Z,77.80
2018-12-09T05:06:16.776Z,80.50
2018-12-09T05:16:09.189Z,79.40
2018-12-09T05:23:32.827Z,77.30
2018-12-09T05:26:00.686Z,77.30
2018-12-09T05:33:24.440Z,81.60
2018-12-09T05:35:52.239Z,80.80
2018-12-09T05:50:39.773Z,81.20
2018-12-09T05:53:07.530Z,78.10
2018-12-09T06:02:58.717Z,75.70
2018-12-09T06:20:13.339Z,78.00
2018-12-09T06:22:41.109Z,75.10
2018-12-09T06:27:36.690Z,75.80
2018-12-09T06:30:07.274Z,75.10
2018-12-09T06:42:26.813Z,71.70
2018-12-09T06:44:54.576Z,71.80
2018-12-09T06:49:51.327Z,71.70
2018-12-09T06:52:20.220Z,71.00
2018-12-09T06:54:48.622Z,69.80
2018-12-09T06:57:16.575Z,70.10
2018-12-09T06:59:44.659Z,70.30
2018-12-09T07:04:40.222Z,71.60
2018-12-09T07:19:30.523Z,74.20
2018-12-09T07:24:27.533Z,73.30
2018-12-09T07:31:51.868Z,69.60
2018-12-09T07:34:20.196Z,70.00
2018-12-09T07:36:49.675Z,69.80
2018-12-09T07:39:18.332Z,69.00
2018-12-09T07:41:46.098Z,69.20
2018-12-09T07:44:13.949Z,68.20
2018-12-09T07:46:42.056Z,68.00
2018-12-09T07:49:11.043Z,70.10
2018-12-09T07:54:06.664Z,68.70
2018-12-09T07:56:34.777Z,68.40
2018-12-09T07:59:02.613Z,73.00
2018-12-09T08:01:30.560Z,69.80
2018-12-09T08:03:58.940Z,68.40
2018-12-09T08:06:27.835Z,68.80
2018-12-09T08:08:56.986Z,68.40
2018-12-09T08:11:24.983Z,69.00
2018-12-09T08:13:52.768Z,70.40
2018-12-09T08:16:21.043Z,70.70
2018-12-09T08:18:49.740Z,69.00
2018-12-09T08:26:13.504Z,70.20
2018-12-09T08:33:41.903Z,71.60
2018-12-09T08:38:37.487Z,70.50
2018-12-09T08:41:05.618Z,69.40
2018-12-09T08:51:02.151Z,67.10
2018-12-09T09:00:54.560Z,67.60
2018-12-09T09:03:24.569Z,68.00
2018-12-09T09:05:52.430Z,67.50
2018-12-09T09:08:21.293Z,70.70
2018-12-09T09:13:19.995Z,77.00
2018-12-09T09:15:47.822Z,78.80
2018-12-09T09:18:15.820Z,78.90
2018-12-09T09:23:11.444Z,84.70
2018-12-09T09:25:39.267Z,78.00
2018-12-09T09:28:07.485Z,78.10
2018-12-09T09:30:35.743Z,76.30
2018-12-09T09:33:03.717Z,74.40
2018-12-09T09:35:31.608Z,75.30
2018-12-09T09:37:59.513Z,77.30
2018-12-09T09:40:27.282Z,74.20
2018-12-09T09:42:55.487Z,80.60
2018-12-09T09:45:23.657Z,77.10
2018-12-09T09:47:51.497Z,84.10
2018-12-09T09:50:19.617Z,80.50
2018-12-09T09:52:47.758Z,82.40
2018-12-09T09:55:16.625Z,82.20
2018-12-09T09:57:44.603Z,79.90
2018-12-09T10:00:13.332Z,84.10
2018-12-09T10:02:41.126Z,85.80
2018-12-09T10:05:10.398Z,79.90
2018-12-09T10:07:39.186Z,79.80
2018-12-09T10:10:07.283Z,79.20
2018-12-09T10:12:36.339Z,78.30
2018-12-09T10:15:04.869Z,77.40
2018-12-09T10:17:34.492Z,75.00
2018-12-09T10:20:02.374Z,77.90
2018-12-09T10:22:30.337Z,79.70
2018-12-09T10:27:27.929Z,82.80
2018-12-09T10:29:56.278Z,83.70
2018-12-09T10:37:20.844Z,85.80
2018-12-09T10:39:49.427Z,81.00
2018-12-09T10:42:18.720Z,79.00
2018-12-09T10:44:47.473Z,79.60
2018-12-09T10:47:15.892Z,76.70
2018-12-09T10:49:43.702Z,78.00
2018-12-09T10:52:11.541Z,77.50
2018-12-09T10:54:39.386Z,79.60
2018-12-09T10:57:11.423Z,81.20
2018-12-09T10:59:41.741Z,77.90
2018-12-09T11:04:49.862Z,77.80
2018-12-09T11:09:45.561Z,76.80
2018-12-09T11:12:14.783Z,76.00
2018-12-09T11:14:43.332Z,77.90
2018-12-09T11:19:39.721Z,84.20
2018-12-09T11:22:07.821Z,81.50
2018-12-09T13:03:48.327Z,99.90
2018-12-09T13:06:20.017Z,99.90
2018-12-09T13:23:47.477Z,99.90
2018-12-09T13:38:38.418Z,99.90
2018-12-09T13:41:06.683Z,99.90
2018-12-09T13:43:34.594Z,99.90
2018-12-09T13:46:02.495Z,97.80
2018-12-09T14:03:21.066Z,99.90
2018-12-09T14:13:13.488Z,99.70
2018-12-09T14:15:41.775Z,99.80
2018-12-09T14:18:09.791Z,97.20
2018-12-09T14:25:36.422Z,97.90
2018-12-09T14:28:04.519Z,98.40
2018-12-09T14:35:32.059Z,99.90
2018-12-09T15:15:16.480Z,97.40
2018-12-09T15:17:44.851Z,99.60
2018-12-09T15:20:13.104Z,96.20
2018-12-09T23:08:45.741Z,99.90
